sensor_id;sensor_type;location;lat;lon;timestamp;P1;durP1;ratioP1;P2;durP2;ratioP2
35150;SDS011;55720;51.972;4.624;2023-11-22T00:00:55;22.63;;;10.27;;
35150;SDS011;55720;51.972;4.624;2023-11-22T00:03:20;19.23;;;9.90;;
35150;SDS011;55720;51.972;4.624;2023-11-22T00:05:45;24.58;;;10.07;;
35150;SDS011;55720;51.972;4.624;2023-11-22T00:08:11;19.48;;;9.93;;
35150;SDS011;55720;51.972;4.624;2023-11-22T00:10:37;28.95;;;10.32;;
35150;SDS011;55720;51.972;4.624;2023-11-22T00:13:02;30.67;;;12.27;;
35150;SDS011;55720;51.972;4.624;2023-11-22T00:15:27;26.00;;;10.87;;
35150;SDS011;55720;51.972;4.624;2023-11-22T00:17:53;32.30;;;11.27;;
35150;SDS011;55720;51.972;4.624;2023-11-22T00:20:18;27.77;;;11.02;;
35150;SDS011;55720;51.972;4.624;2023-11-22T00:22:43;29.10;;;10.82;;
35150;SDS011;55720;51.972;4.624;2023-11-22T00:25:10;27.92;;;12.00;;
35150;SDS011;55720;51.972;4.624;2023-11-22T00:27:38;29.23;;;11.70;;
35150;SDS011;55720;51.972;4.624;2023-11-22T00:30:03;29.15;;;11.63;;
35150;SDS011;55720;51.972;4.624;2023-11-22T00:32:29;25.40;;;10.43;;
35150;SDS011;55720;51.972;4.624;2023-11-22T00:34:54;26.35;;;11.15;;
35150;SDS011;55720;51.972;4.624;2023-11-22T00:37:20;28.98;;;10.73;;
35150;SDS011;55720;51.972;4.624;2023-11-22T00:39:45;26.25;;;11.38;;
35150;SDS011;55720;51.972;4.624;2023-11-22T00:42:10;28.20;;;11.40;;
35150;SDS011;55720;51.972;4.624;2023-11-22T00:44:35;25.42;;;10.95;;
35150;SDS011;55720;51.972;4.624;2023-11-22T00:47:03;27.02;;;11.05;;
35150;SDS011;55720;51.972;4.624;2023-11-22T00:49:29;24.70;;;11.10;;
35150;SDS011;55720;51.972;4.624;2023-11-22T00:51:54;21.67;;;10.05;;
35150;SDS011;55720;51.972;4.624;2023-11-22T00:54:19;29.30;;;11.23;;
35150;SDS011;55720;51.972;4.624;2023-11-22T00:56:45;25.80;;;11.35;;
35150;SDS011;55720;51.972;4.624;2023-11-22T00:59:10;27.70;;;11.30;;
35150;SDS011;55720;51.972;4.624;2023-11-22T01:01:35;24.70;;;10.85;;
35150;SDS011;55720;51.972;4.624;2023-11-22T01:04:01;29.13;;;11.43;;
35150;SDS011;55720;51.972;4.624;2023-11-22T01:06:26;22.98;;;11.55;;
35150;SDS011;55720;51.972;4.624;2023-11-22T01:08:51;21.98;;;11.18;;
35150;SDS011;55720;51.972;4.624;2023-11-22T01:11:17;25.02;;;10.70;;
35150;SDS011;55720;51.972;4.624;2023-11-22T01:13:42;25.10;;;11.07;;
35150;SDS011;55720;51.972;4.624;2023-11-22T01:16:08;24.65;;;10.38;;
35150;SDS011;55720;51.972;4.624;2023-11-22T01:18:34;26.50;;;10.80;;
35150;SDS011;55720;51.972;4.624;2023-11-22T01:21:00;21.42;;;9.70;;
35150;SDS011;55720;51.972;4.624;2023-11-22T01:23:25;22.48;;;10.25;;
35150;SDS011;55720;51.972;4.624;2023-11-22T01:25:50;27.10;;;10.55;;
35150;SDS011;55720;51.972;4.624;2023-11-22T01:28:15;21.15;;;9.65;;
35150;SDS011;55720;51.972;4.624;2023-11-22T01:30:42;20.23;;;10.18;;
35150;SDS011;55720;51.972;4.624;2023-11-22T01:33:10;26.35;;;10.63;;
35150;SDS011;55720;51.972;4.624;2023-11-22T01:35:35;21.17;;;10.47;;
35150;SDS011;55720;51.972;4.624;2023-11-22T01:38:00;19.97;;;9.73;;
35150;SDS011;55720;51.972;4.624;2023-11-22T01:40:29;23.65;;;10.60;;
35150;SDS011;55720;51.972;4.624;2023-11-22T01:42:54;25.40;;;10.73;;
35150;SDS011;55720;51.972;4.624;2023-11-22T01:45:20;22.92;;;10.65;;
35150;SDS011;55720;51.972;4.624;2023-11-22T01:47:45;24.85;;;10.00;;
35150;SDS011;55720;51.972;4.624;2023-11-22T01:50:10;26.50;;;10.68;;
35150;SDS011;55720;51.972;4.624;2023-11-22T01:52:36;19.67;;;9.27;;
35150;SDS011;55720;51.972;4.624;2023-11-22T01:55:02;26.85;;;10.90;;
35150;SDS011;55720;51.972;4.624;2023-11-22T01:57:29;25.48;;;10.48;;
35150;SDS011;55720;51.972;4.624;2023-11-22T01:59:55;24.52;;;10.25;;
35150;SDS011;55720;51.972;4.624;2023-11-22T02:02:20;21.33;;;9.55;;
35150;SDS011;55720;51.972;4.624;2023-11-22T02:04:46;24.90;;;10.07;;
35150;SDS011;55720;51.972;4.624;2023-11-22T02:07:11;23.17;;;9.50;;
35150;SDS011;55720;51.972;4.624;2023-11-22T02:09:36;19.33;;;9.07;;
35150;SDS011;55720;51.972;4.624;2023-11-22T02:12:02;19.05;;;9.50;;
35150;SDS011;55720;51.972;4.624;2023-11-22T02:14:27;19.73;;;8.98;;
35150;SDS011;55720;51.972;4.624;2023-11-22T02:16:52;19.02;;;8.35;;
35150;SDS011;55720;51.972;4.624;2023-11-22T02:19:17;23.08;;;9.32;;
35150;SDS011;55720;51.972;4.624;2023-11-22T02:21:43;25.17;;;10.18;;
35150;SDS011;55720;51.972;4.624;2023-11-22T02:24:09;29.33;;;10.25;;
35150;SDS011;55720;51.972;4.624;2023-11-22T02:26:35;25.33;;;10.70;;
35150;SDS011;55720;51.972;4.624;2023-11-22T02:29:01;25.52;;;10.05;;
35150;SDS011;55720;51.972;4.624;2023-11-22T02:31:29;18.33;;;9.48;;
35150;SDS011;55720;51.972;4.624;2023-11-22T02:33:54;23.30;;;9.88;;
35150;SDS011;55720;51.972;4.624;2023-11-22T02:36:20;21.77;;;9.95;;
35150;SDS011;55720;51.972;4.624;2023-11-22T02:38:45;21.20;;;9.48;;
35150;SDS011;55720;51.972;4.624;2023-11-22T02:41:12;28.02;;;11.23;;
35150;SDS011;55720;51.972;4.624;2023-11-22T02:43:38;28.83;;;10.65;;
35150;SDS011;55720;51.972;4.624;2023-11-22T02:46:03;31.63;;;10.82;;
35150;SDS011;55720;51.972;4.624;2023-11-22T02:48:29;32.58;;;10.98;;
35150;SDS011;55720;51.972;4.624;2023-11-22T02:50:54;21.65;;;9.80;;
35150;SDS011;55720;51.972;4.624;2023-11-22T02:53:20;19.70;;;9.55;;
35150;SDS011;55720;51.972;4.624;2023-11-22T02:55:46;21.63;;;9.77;;
35150;SDS011;55720;51.972;4.624;2023-11-22T02:58:11;21.98;;;9.77;;
35150;SDS011;55720;51.972;4.624;2023-11-22T03:00:37;20.85;;;9.70;;
35150;SDS011;55720;51.972;4.624;2023-11-22T03:03:03;21.98;;;10.38;;
35150;SDS011;55720;51.972;4.624;2023-11-22T03:05:29;31.08;;;11.32;;
35150;SDS011;55720;51.972;4.624;2023-11-22T03:07:55;25.17;;;10.75;;
35150;SDS011;55720;51.972;4.624;2023-11-22T03:10:20;24.08;;;9.88;;
35150;SDS011;55720;51.972;4.624;2023-11-22T03:12:45;22.10;;;10.18;;
35150;SDS011;55720;51.972;4.624;2023-11-22T03:15:11;24.63;;;10.65;;
35150;SDS011;55720;51.972;4.624;2023-11-22T03:17:37;25.77;;;11.00;;
35150;SDS011;55720;51.972;4.624;2023-11-22T03:20:04;23.23;;;10.23;;
35150;SDS011;55720;51.972;4.624;2023-11-22T03:22:33;24.85;;;10.48;;
35150;SDS011;55720;51.972;4.624;2023-11-22T03:25:01;23.33;;;9.38;;
35150;SDS011;55720;51.972;4.624;2023-11-22T03:27:27;21.45;;;9.07;;
35150;SDS011;55720;51.972;4.624;2023-11-22T03:29:52;20.08;;;9.15;;
35150;SDS011;55720;51.972;4.624;2023-11-22T03:32:17;22.05;;;9.80;;
35150;SDS011;55720;51.972;4.624;2023-11-22T03:34:43;26.80;;;10.13;;
35150;SDS011;55720;51.972;4.624;2023-11-22T03:37:08;25.77;;;9.90;;
35150;SDS011;55720;51.972;4.624;2023-11-22T03:39:33;24.48;;;10.40;;
35150;SDS011;55720;51.972;4.624;2023-11-22T03:41:58;21.65;;;9.82;;
35150;SDS011;55720;51.972;4.624;2023-11-22T03:44:24;22.87;;;10.17;;
35150;SDS011;55720;51.972;4.624;2023-11-22T03:46:49;26.60;;;10.53;;
35150;SDS011;55720;51.972;4.624;2023-11-22T03:49:14;21.35;;;9.25;;
35150;SDS011;55720;51.972;4.624;2023-11-22T03:51:40;22.73;;;9.70;;
35150;SDS011;55720;51.972;4.624;2023-11-22T03:54:06;23.95;;;10.38;;
35150;SDS011;55720;51.972;4.624;2023-11-22T03:56:31;22.90;;;9.82;;
35150;SDS011;55720;51.972;4.624;2023-11-22T03:58:57;23.55;;;9.75;;
35150;SDS011;55720;51.972;4.624;2023-11-22T04:01:22;22.33;;;9.25;;
35150;SDS011;55720;51.972;4.624;2023-11-22T04:03:47;21.70;;;9.85;;
35150;SDS011;55720;51.972;4.624;2023-11-22T04:06:14;17.88;;;9.27;;
35150;SDS011;55720;51.972;4.624;2023-11-22T04:08:40;22.70;;;10.50;;
35150;SDS011;55720;51.972;4.624;2023-11-22T04:11:05;18.97;;;8.53;;
35150;SDS011;55720;51.972;4.624;2023-11-22T04:13:30;22.53;;;9.67;;
35150;SDS011;55720;51.972;4.624;2023-11-22T04:15:56;24.02;;;9.52;;
35150;SDS011;55720;51.972;4.624;2023-11-22T04:18:21;18.70;;;10.10;;
35150;SDS011;55720;51.972;4.624;2023-11-22T04:20:46;18.63;;;8.73;;
35150;SDS011;55720;51.972;4.624;2023-11-22T04:23:13;20.10;;;9.90;;
35150;SDS011;55720;51.972;4.624;2023-11-22T04:25:39;22.58;;;9.02;;
35150;SDS011;55720;51.972;4.624;2023-11-22T04:28:06;23.00;;;9.55;;
35150;SDS011;55720;51.972;4.624;2023-11-22T04:30:33;21.77;;;9.95;;
35150;SDS011;55720;51.972;4.624;2023-11-22T04:32:58;23.30;;;9.73;;
35150;SDS011;55720;51.972;4.624;2023-11-22T04:35:24;17.63;;;9.10;;
35150;SDS011;55720;51.972;4.624;2023-11-22T04:37:50;23.37;;;10.43;;
35150;SDS011;55720;51.972;4.624;2023-11-22T04:40:15;25.20;;;9.93;;
35150;SDS011;55720;51.972;4.624;2023-11-22T04:42:40;21.20;;;9.68;;
35150;SDS011;55720;51.972;4.624;2023-11-22T04:45:05;22.60;;;10.23;;
35150;SDS011;55720;51.972;4.624;2023-11-22T04:47:31;23.90;;;10.32;;
35150;SDS011;55720;51.972;4.624;2023-11-22T04:49:56;21.65;;;9.63;;
35150;SDS011;55720;51.972;4.624;2023-11-22T04:52:22;21.85;;;10.68;;
35150;SDS011;55720;51.972;4.624;2023-11-22T04:54:47;25.38;;;9.93;;
35150;SDS011;55720;51.972;4.624;2023-11-22T04:57:12;23.10;;;10.27;;
35150;SDS011;55720;51.972;4.624;2023-11-22T04:59:37;19.90;;;10.15;;
35150;SDS011;55720;51.972;4.624;2023-11-22T05:02:03;31.73;;;10.35;;
35150;SDS011;55720;51.972;4.624;2023-11-22T05:04:28;32.13;;;11.70;;
35150;SDS011;55720;51.972;4.624;2023-11-22T05:06:54;26.30;;;11.27;;
35150;SDS011;55720;51.972;4.624;2023-11-22T05:09:19;29.57;;;10.73;;
35150;SDS011;55720;51.972;4.624;2023-11-22T05:11:45;29.80;;;12.20;;
35150;SDS011;55720;51.972;4.624;2023-11-22T05:14:10;34.33;;;12.60;;
35150;SDS011;55720;51.972;4.624;2023-11-22T05:16:35;28.80;;;12.15;;
35150;SDS011;55720;51.972;4.624;2023-11-22T05:19:00;23.63;;;11.25;;
35150;SDS011;55720;51.972;4.624;2023-11-22T05:21:26;28.55;;;11.52;;
35150;SDS011;55720;51.972;4.624;2023-11-22T05:23:51;30.00;;;11.98;;
35150;SDS011;55720;51.972;4.624;2023-11-22T05:26:18;24.58;;;11.20;;
35150;SDS011;55720;51.972;4.624;2023-11-22T05:28:43;30.65;;;11.30;;
35150;SDS011;55720;51.972;4.624;2023-11-22T05:31:08;34.17;;;11.65;;
35150;SDS011;55720;51.972;4.624;2023-11-22T05:33:33;33.25;;;11.55;;
35150;SDS011;55720;51.972;4.624;2023-11-22T05:35:59;29.87;;;12.00;;
35150;SDS011;55720;51.972;4.624;2023-11-22T05:38:24;36.95;;;12.85;;
35150;SDS011;55720;51.972;4.624;2023-11-22T05:40:50;34.50;;;13.35;;
35150;SDS011;55720;51.972;4.624;2023-11-22T05:43:15;41.58;;;13.77;;
35150;SDS011;55720;51.972;4.624;2023-11-22T05:45:41;35.47;;;12.60;;
35150;SDS011;55720;51.972;4.624;2023-11-22T05:48:06;33.10;;;13.07;;
35150;SDS011;55720;51.972;4.624;2023-11-22T05:50:31;40.73;;;14.27;;
35150;SDS011;55720;51.972;4.624;2023-11-22T05:52:56;42.67;;;14.65;;
35150;SDS011;55720;51.972;4.624;2023-11-22T05:55:22;39.80;;;13.82;;
35150;SDS011;55720;51.972;4.624;2023-11-22T05:57:48;42.00;;;14.70;;
35150;SDS011;55720;51.972;4.624;2023-11-22T06:00:13;41.95;;;15.90;;
35150;SDS011;55720;51.972;4.624;2023-11-22T06:02:39;38.58;;;14.90;;
35150;SDS011;55720;51.972;4.624;2023-11-22T06:05:04;44.33;;;16.00;;
35150;SDS011;55720;51.972;4.624;2023-11-22T06:07:30;50.95;;;16.35;;
35150;SDS011;55720;51.972;4.624;2023-11-22T06:09:56;54.35;;;16.15;;
35150;SDS011;55720;51.972;4.624;2023-11-22T06:12:22;47.47;;;16.02;;
35150;SDS011;55720;51.972;4.624;2023-11-22T06:14:47;43.30;;;15.52;;
35150;SDS011;55720;51.972;4.624;2023-11-22T06:17:12;49.10;;;15.35;;
35150;SDS011;55720;51.972;4.624;2023-11-22T06:19:39;46.80;;;15.98;;
35150;SDS011;55720;51.972;4.624;2023-11-22T06:22:04;48.67;;;16.98;;
35150;SDS011;55720;51.972;4.624;2023-11-22T06:24:29;49.17;;;17.03;;
35150;SDS011;55720;51.972;4.624;2023-11-22T06:26:54;45.83;;;15.05;;
35150;SDS011;55720;51.972;4.624;2023-11-22T06:29:20;52.65;;;16.20;;
35150;SDS011;55720;51.972;4.624;2023-11-22T06:31:45;43.78;;;15.50;;
35150;SDS011;55720;51.972;4.624;2023-11-22T06:34:10;42.15;;;15.50;;
35150;SDS011;55720;51.972;4.624;2023-11-22T06:36:35;45.13;;;16.03;;
35150;SDS011;55720;51.972;4.624;2023-11-22T06:39:01;45.07;;;16.27;;
35150;SDS011;55720;51.972;4.624;2023-11-22T06:41:26;51.38;;;16.65;;
35150;SDS011;55720;51.972;4.624;2023-11-22T06:43:51;45.25;;;15.82;;
35150;SDS011;55720;51.972;4.624;2023-11-22T06:46:16;53.63;;;16.80;;
35150;SDS011;55720;51.972;4.624;2023-11-22T06:48:42;47.22;;;17.13;;
35150;SDS011;55720;51.972;4.624;2023-11-22T06:51:09;44.63;;;15.27;;
35150;SDS011;55720;51.972;4.624;2023-11-22T06:53:34;40.33;;;14.98;;
35150;SDS011;55720;51.972;4.624;2023-11-22T06:55:59;48.83;;;15.82;;
35150;SDS011;55720;51.972;4.624;2023-11-22T06:58:26;40.97;;;13.82;;
35150;SDS011;55720;51.972;4.624;2023-11-22T07:00:51;45.47;;;14.33;;
35150;SDS011;55720;51.972;4.624;2023-11-22T07:03:16;45.57;;;13.80;;
35150;SDS011;55720;51.972;4.624;2023-11-22T07:05:41;44.75;;;14.70;;
35150;SDS011;55720;51.972;4.624;2023-11-22T07:08:07;45.70;;;14.70;;
35150;SDS011;55720;51.972;4.624;2023-11-22T07:10:32;40.65;;;14.23;;
35150;SDS011;55720;51.972;4.624;2023-11-22T07:12:59;46.95;;;15.30;;
35150;SDS011;55720;51.972;4.624;2023-11-22T07:15:26;48.10;;;16.45;;
35150;SDS011;55720;51.972;4.624;2023-11-22T07:17:51;53.83;;;16.33;;
35150;SDS011;55720;51.972;4.624;2023-11-22T07:20:16;56.67;;;17.13;;
35150;SDS011;55720;51.972;4.624;2023-11-22T07:22:42;52.65;;;17.52;;
35150;SDS011;55720;51.972;4.624;2023-11-22T07:25:08;58.90;;;16.83;;
35150;SDS011;55720;51.972;4.624;2023-11-22T07:27:43;59.75;;;17.85;;
35150;SDS011;55720;51.972;4.624;2023-11-22T07:30:08;53.17;;;17.10;;
35150;SDS011;55720;51.972;4.624;2023-11-22T07:32:34;54.50;;;17.13;;
35150;SDS011;55720;51.972;4.624;2023-11-22T07:34:59;63.78;;;17.65;;
35150;SDS011;55720;51.972;4.624;2023-11-22T07:37:28;50.92;;;16.60;;
35150;SDS011;55720;51.972;4.624;2023-11-22T07:39:53;51.50;;;17.13;;
35150;SDS011;55720;51.972;4.624;2023-11-22T07:42:19;61.00;;;16.85;;
35150;SDS011;55720;51.972;4.624;2023-11-22T07:44:44;55.30;;;16.67;;
35150;SDS011;55720;51.972;4.624;2023-11-22T07:47:09;65.95;;;18.48;;
35150;SDS011;55720;51.972;4.624;2023-11-22T07:49:38;63.20;;;18.00;;
35150;SDS011;55720;51.972;4.624;2023-11-22T07:52:04;55.92;;;17.50;;
35150;SDS011;55720;51.972;4.624;2023-11-22T07:54:29;63.28;;;16.38;;
35150;SDS011;55720;51.972;4.624;2023-11-22T07:56:55;57.83;;;17.85;;
35150;SDS011;55720;51.972;4.624;2023-11-22T07:59:21;53.95;;;16.67;;
35150;SDS011;55720;51.972;4.624;2023-11-22T08:01:46;65.90;;;16.50;;
35150;SDS011;55720;51.972;4.624;2023-11-22T08:04:14;50.38;;;16.17;;
35150;SDS011;55720;51.972;4.624;2023-11-22T08:06:41;57.78;;;16.88;;
35150;SDS011;55720;51.972;4.624;2023-11-22T08:09:07;56.90;;;16.98;;
35150;SDS011;55720;51.972;4.624;2023-11-22T08:11:34;50.65;;;16.05;;
35150;SDS011;55720;51.972;4.624;2023-11-22T08:14:00;51.25;;;15.68;;
35150;SDS011;55720;51.972;4.624;2023-11-22T08:16:26;51.38;;;16.35;;
35150;SDS011;55720;51.972;4.624;2023-11-22T08:18:52;56.53;;;16.92;;
35150;SDS011;55720;51.972;4.624;2023-11-22T08:21:17;50.20;;;16.63;;
35150;SDS011;55720;51.972;4.624;2023-11-22T08:23:43;49.63;;;15.65;;
35150;SDS011;55720;51.972;4.624;2023-11-22T08:26:08;51.53;;;15.38;;
35150;SDS011;55720;51.972;4.624;2023-11-22T08:28:34;50.55;;;16.98;;
35150;SDS011;55720;51.972;4.624;2023-11-22T08:31:00;57.90;;;16.50;;
35150;SDS011;55720;51.972;4.624;2023-11-22T08:33:26;52.90;;;17.67;;
35150;SDS011;55720;51.972;4.624;2023-11-22T08:35:51;50.22;;;16.17;;
35150;SDS011;55720;51.972;4.624;2023-11-22T08:38:23;53.88;;;16.92;;
35150;SDS011;55720;51.972;4.624;2023-11-22T08:40:48;57.95;;;18.80;;
35150;SDS011;55720;51.972;4.624;2023-11-22T08:43:13;60.97;;;18.35;;
35150;SDS011;55720;51.972;4.624;2023-11-22T08:45:38;62.60;;;17.58;;
35150;SDS011;55720;51.972;4.624;2023-11-22T08:48:04;67.00;;;18.77;;
35150;SDS011;55720;51.972;4.624;2023-11-22T08:50:29;63.50;;;20.15;;
35150;SDS011;55720;51.972;4.624;2023-11-22T08:52:54;65.40;;;19.25;;
35150;SDS011;55720;51.972;4.624;2023-11-22T08:55:20;67.15;;;18.27;;
35150;SDS011;55720;51.972;4.624;2023-11-22T08:57:47;70.63;;;19.38;;
35150;SDS011;55720;51.972;4.624;2023-11-22T09:00:12;71.68;;;20.35;;
35150;SDS011;55720;51.972;4.624;2023-11-22T09:02:39;66.68;;;19.10;;
35150;SDS011;55720;51.972;4.624;2023-11-22T09:05:05;67.00;;;18.70;;
35150;SDS011;55720;51.972;4.624;2023-11-22T09:07:33;76.03;;;21.13;;
35150;SDS011;55720;51.972;4.624;2023-11-22T09:09:59;72.63;;;19.33;;
35150;SDS011;55720;51.972;4.624;2023-11-22T09:12:24;65.40;;;19.83;;
35150;SDS011;55720;51.972;4.624;2023-11-22T09:14:52;77.30;;;20.15;;
35150;SDS011;55720;51.972;4.624;2023-11-22T09:17:18;71.78;;;20.50;;
35150;SDS011;55720;51.972;4.624;2023-11-22T09:19:43;73.37;;;21.13;;
35150;SDS011;55720;51.972;4.624;2023-11-22T09:22:08;72.28;;;19.67;;
35150;SDS011;55720;51.972;4.624;2023-11-22T09:24:33;64.55;;;20.17;;
35150;SDS011;55720;51.972;4.624;2023-11-22T09:27:01;73.32;;;21.90;;
35150;SDS011;55720;51.972;4.624;2023-11-22T09:29:30;73.90;;;20.88;;
35150;SDS011;55720;51.972;4.624;2023-11-22T09:31:55;72.18;;;18.98;;
35150;SDS011;55720;51.972;4.624;2023-11-22T09:34:21;75.00;;;20.15;;
35150;SDS011;55720;51.972;4.624;2023-11-22T09:36:46;69.82;;;20.73;;
35150;SDS011;55720;51.972;4.624;2023-11-22T09:39:12;71.43;;;20.23;;
35150;SDS011;55720;51.972;4.624;2023-11-22T09:41:37;71.22;;;20.80;;
35150;SDS011;55720;51.972;4.624;2023-11-22T09:44:02;72.88;;;20.85;;
35150;SDS011;55720;51.972;4.624;2023-11-22T09:46:29;70.90;;;19.67;;
35150;SDS011;55720;51.972;4.624;2023-11-22T09:48:56;66.93;;;19.23;;
35150;SDS011;55720;51.972;4.624;2023-11-22T09:51:26;68.45;;;20.52;;
35150;SDS011;55720;51.972;4.624;2023-11-22T09:56:21;71.43;;;20.98;;
35150;SDS011;55720;51.972;4.624;2023-11-22T09:58:46;68.43;;;19.55;;
35150;SDS011;55720;51.972;4.624;2023-11-22T10:01:13;67.00;;;20.05;;
35150;SDS011;55720;51.972;4.624;2023-11-22T10:03:39;69.38;;;20.80;;
35150;SDS011;55720;51.972;4.624;2023-11-22T10:06:04;65.88;;;19.85;;
35150;SDS011;55720;51.972;4.624;2023-11-22T10:08:30;67.22;;;19.88;;
35150;SDS011;55720;51.972;4.624;2023-11-22T10:10:56;63.00;;;20.05;;
35150;SDS011;55720;51.972;4.624;2023-11-22T10:13:21;66.32;;;21.30;;
35150;SDS011;55720;51.972;4.624;2023-11-22T10:15:47;66.35;;;20.73;;
35150;SDS011;55720;51.972;4.624;2023-11-22T10:18:13;65.63;;;21.40;;
35150;SDS011;55720;51.972;4.624;2023-11-22T10:20:39;65.85;;;21.88;;
35150;SDS011;55720;51.972;4.624;2023-11-22T10:23:11;67.70;;;21.38;;
35150;SDS011;55720;51.972;4.624;2023-11-22T10:25:56;60.92;;;20.63;;
35150;SDS011;55720;51.972;4.624;2023-11-22T10:28:22;62.75;;;19.90;;
35150;SDS011;55720;51.972;4.624;2023-11-22T10:30:50;54.83;;;20.63;;
35150;SDS011;55720;51.972;4.624;2023-11-22T10:33:19;45.45;;;18.15;;
35150;SDS011;55720;51.972;4.624;2023-11-22T10:35:49;42.95;;;17.05;;
35150;SDS011;55720;51.972;4.624;2023-11-22T10:38:14;49.35;;;19.33;;
35150;SDS011;55720;51.972;4.624;2023-11-22T10:40:40;45.15;;;17.98;;
35150;SDS011;55720;51.972;4.624;2023-11-22T10:43:06;40.33;;;16.70;;
35150;SDS011;55720;51.972;4.624;2023-11-22T10:45:33;30.90;;;14.70;;
35150;SDS011;55720;51.972;4.624;2023-11-22T10:47:59;38.17;;;15.57;;
35150;SDS011;55720;51.972;4.624;2023-11-22T10:50:25;31.45;;;14.80;;
35150;SDS011;55720;51.972;4.624;2023-11-22T10:52:51;29.02;;;14.90;;
35150;SDS011;55720;51.972;4.624;2023-11-22T10:55:20;30.80;;;13.88;;
35150;SDS011;55720;51.972;4.624;2023-11-22T10:57:47;26.25;;;14.38;;
35150;SDS011;55720;51.972;4.624;2023-11-22T11:00:16;24.73;;;12.70;;
35150;SDS011;55720;51.972;4.624;2023-11-22T11:02:46;21.92;;;12.15;;
35150;SDS011;55720;51.972;4.624;2023-11-22T11:05:15;23.75;;;11.85;;
35150;SDS011;55720;51.972;4.624;2023-11-22T11:07:43;19.45;;;11.10;;
35150;SDS011;55720;51.972;4.624;2023-11-22T11:10:10;18.70;;;10.80;;
35150;SDS011;55720;51.972;4.624;2023-11-22T11:12:36;16.30;;;10.18;;
35150;SDS011;55720;51.972;4.624;2023-11-22T11:15:03;16.08;;;9.90;;
35150;SDS011;55720;51.972;4.624;2023-11-22T11:17:28;20.17;;;9.57;;
35150;SDS011;55720;51.972;4.624;2023-11-22T11:19:54;15.48;;;9.23;;
35150;SDS011;55720;51.972;4.624;2023-11-22T11:22:20;16.50;;;9.33;;
35150;SDS011;55720;51.972;4.624;2023-11-22T11:24:47;16.55;;;9.82;;
35150;SDS011;55720;51.972;4.624;2023-11-22T11:27:12;15.85;;;9.18;;
35150;SDS011;55720;51.972;4.624;2023-11-22T11:29:38;16.23;;;10.35;;
35150;SDS011;55720;51.972;4.624;2023-11-22T11:32:11;14.45;;;8.75;;
35150;SDS011;55720;51.972;4.624;2023-11-22T11:34:50;13.73;;;8.45;;
35150;SDS011;55720;51.972;4.624;2023-11-22T11:37:17;13.82;;;8.70;;
35150;SDS011;55720;51.972;4.624;2023-11-22T11:39:42;15.93;;;8.55;;
35150;SDS011;55720;51.972;4.624;2023-11-22T11:42:11;13.90;;;8.65;;
35150;SDS011;55720;51.972;4.624;2023-11-22T11:44:50;12.65;;;8.20;;
35150;SDS011;55720;51.972;4.624;2023-11-22T11:47:16;14.40;;;7.88;;
35150;SDS011;55720;51.972;4.624;2023-11-22T11:49:41;14.13;;;7.97;;
35150;SDS011;55720;51.972;4.624;2023-11-22T11:52:06;11.95;;;7.90;;
35150;SDS011;55720;51.972;4.624;2023-11-22T11:54:32;13.02;;;8.00;;
35150;SDS011;55720;51.972;4.624;2023-11-22T11:56:58;14.50;;;8.30;;
35150;SDS011;55720;51.972;4.624;2023-11-22T11:59:24;16.30;;;9.40;;
35150;SDS011;55720;51.972;4.624;2023-11-22T12:01:52;14.77;;;8.65;;
35150;SDS011;55720;51.972;4.624;2023-11-22T12:04:18;13.65;;;8.82;;
35150;SDS011;55720;51.972;4.624;2023-11-22T12:06:43;15.60;;;9.17;;
35150;SDS011;55720;51.972;4.624;2023-11-22T12:09:08;17.85;;;9.93;;
35150;SDS011;55720;51.972;4.624;2023-11-22T12:11:33;17.43;;;10.13;;
35150;SDS011;55720;51.972;4.624;2023-11-22T12:13:59;18.58;;;9.93;;
35150;SDS011;55720;51.972;4.624;2023-11-22T12:16:24;19.20;;;9.02;;
35150;SDS011;55720;51.972;4.624;2023-11-22T12:18:50;16.73;;;9.63;;
35150;SDS011;55720;51.972;4.624;2023-11-22T12:21:16;18.00;;;8.60;;
35150;SDS011;55720;51.972;4.624;2023-11-22T12:23:43;13.05;;;8.70;;
35150;SDS011;55720;51.972;4.624;2023-11-22T12:26:11;14.45;;;9.18;;
35150;SDS011;55720;51.972;4.624;2023-11-22T12:28:37;13.68;;;8.73;;
35150;SDS011;55720;51.972;4.624;2023-11-22T12:33:34;14.18;;;8.48;;
35150;SDS011;55720;51.972;4.624;2023-11-22T12:36:00;14.48;;;8.68;;
35150;SDS011;55720;51.972;4.624;2023-11-22T12:38:25;15.00;;;8.65;;
35150;SDS011;55720;51.972;4.624;2023-11-22T12:40:56;15.38;;;8.85;;
35150;SDS011;55720;51.972;4.624;2023-11-22T12:43:21;16.50;;;8.30;;
35150;SDS011;55720;51.972;4.624;2023-11-22T12:45:46;13.73;;;8.77;;
35150;SDS011;55720;51.972;4.624;2023-11-22T12:50:48;14.32;;;9.10;;
35150;SDS011;55720;51.972;4.624;2023-11-22T12:53:14;14.32;;;8.15;;
35150;SDS011;55720;51.972;4.624;2023-11-22T12:55:42;11.15;;;7.88;;
35150;SDS011;55720;51.972;4.624;2023-11-22T12:58:09;16.48;;;8.75;;
35150;SDS011;55720;51.972;4.624;2023-11-22T13:00:34;16.50;;;8.95;;
35150;SDS011;55720;51.972;4.624;2023-11-22T13:03:00;13.30;;;8.82;;
35150;SDS011;55720;51.972;4.624;2023-11-22T13:05:26;15.05;;;8.98;;
35150;SDS011;55720;51.972;4.624;2023-11-22T13:07:51;13.05;;;8.38;;
35150;SDS011;55720;51.972;4.624;2023-11-22T13:10:17;15.20;;;8.90;;
35150;SDS011;55720;51.972;4.624;2023-11-22T13:12:42;15.00;;;8.23;;
35150;SDS011;55720;51.972;4.624;2023-11-22T13:15:09;15.00;;;8.90;;
35150;SDS011;55720;51.972;4.624;2023-11-22T13:17:36;15.25;;;9.60;;
35150;SDS011;55720;51.972;4.624;2023-11-22T13:20:02;15.70;;;9.32;;
35150;SDS011;55720;51.972;4.624;2023-11-22T13:22:27;18.77;;;8.90;;
35150;SDS011;55720;51.972;4.624;2023-11-22T13:24:52;14.50;;;8.20;;
35150;SDS011;55720;51.972;4.624;2023-11-22T13:27:18;14.70;;;8.60;;
35150;SDS011;55720;51.972;4.624;2023-11-22T13:29:43;17.17;;;8.75;;
35150;SDS011;55720;51.972;4.624;2023-11-22T13:32:09;15.43;;;9.27;;
35150;SDS011;55720;51.972;4.624;2023-11-22T13:34:34;16.10;;;9.45;;
35150;SDS011;55720;51.972;4.624;2023-11-22T13:36:59;20.20;;;10.80;;
35150;SDS011;55720;51.972;4.624;2023-11-22T13:39:25;16.42;;;9.25;;
35150;SDS011;55720;51.972;4.624;2023-11-22T13:41:50;16.63;;;9.88;;
35150;SDS011;55720;51.972;4.624;2023-11-22T13:44:16;18.30;;;9.83;;
35150;SDS011;55720;51.972;4.624;2023-11-22T13:46:43;20.80;;;10.63;;
35150;SDS011;55720;51.972;4.624;2023-11-22T13:49:08;16.75;;;9.88;;
35150;SDS011;55720;51.972;4.624;2023-11-22T13:51:33;18.03;;;9.83;;
35150;SDS011;55720;51.972;4.624;2023-11-22T13:53:59;18.33;;;10.30;;
35150;SDS011;55720;51.972;4.624;2023-11-22T13:56:24;19.73;;;11.43;;
35150;SDS011;55720;51.972;4.624;2023-11-22T13:58:50;18.77;;;10.85;;
35150;SDS011;55720;51.972;4.624;2023-11-22T14:01:15;23.87;;;11.03;;
35150;SDS011;55720;51.972;4.624;2023-11-22T14:03:46;20.35;;;10.30;;
35150;SDS011;55720;51.972;4.624;2023-11-22T14:06:11;17.75;;;10.85;;
35150;SDS011;55720;51.972;4.624;2023-11-22T14:08:41;19.65;;;11.30;;
35150;SDS011;55720;51.972;4.624;2023-11-22T14:11:06;20.55;;;11.43;;
35150;SDS011;55720;51.972;4.624;2023-11-22T14:13:32;19.10;;;11.05;;
35150;SDS011;55720;51.972;4.624;2023-11-22T14:15:57;19.30;;;11.23;;
35150;SDS011;55720;51.972;4.624;2023-11-22T14:18:22;19.55;;;10.80;;
35150;SDS011;55720;51.972;4.624;2023-11-22T14:20:48;20.42;;;11.20;;
35150;SDS011;55720;51.972;4.624;2023-11-22T14:23:13;20.02;;;11.20;;
35150;SDS011;55720;51.972;4.624;2023-11-22T14:25:38;22.63;;;11.40;;